This is the latest recevied weather packets stored in our database for station/object KD8DLP-13. If no packets are shown the sender has not sent any weather packets the latest 1 day(s).
| Time | Temp. | Humidity | Pressure | Rain* | Wind** | Luminosity | Snow |
|---|---|---|---|---|---|---|---|
| 1778091221 | 14.44° C | 37% | 1014.1 hPa | 0 mm | - | 786 W/m² | - |
| 1778090310 | 14.44° C | 38% | 1014.2 hPa | 0 mm | - | 848 W/m² | - |
| 1778090007 | 13.89° C | 39% | 1014.2 hPa | 0 mm | - | 775 W/m² | - |
| 1778089099 | 15° C | 35% | 1014.4 hPa | 0 mm | - | 788 W/m² | - |
| 1778086070 | 13.89° C | 38% | 1014.5 hPa | 0 mm | - | 349 W/m² | - |
| 1778084553 | 15° C | 36% | 1014.3 hPa | 0 mm | - | 600 W/m² | - |
| 1778084250 | 14.44° C | 37% | 1014.4 hPa | 0 mm | - | 540 W/m² | - |
| 1778083947 | 15° C | 39% | 1014.4 hPa | 0 mm | - | 327 W/m² | - |
| 1778083341 | 13.89° C | 39% | 1014.2 hPa | 0 mm | - | 508 W/m² | - |
| 1778080998 | 15° C | 41% | 1014.4 hPa | 0 mm | - | 526 W/m² | - |
| 1778080697 | 15° C | 39% | 1014.6 hPa | 0 mm | - | 579 W/m² | - |
| 1778080393 | 14.44° C | 40% | 1014.5 hPa | 0 mm | - | 557 W/m² | - |
| 1778079787 | 13.89° C | 41% | 1014.4 hPa | 0 mm | - | 637 W/m² | - |
| 1778079180 | 13.89° C | 40% | 1014.5 hPa | 0 mm | - | 517 W/m² | - |
| 1778078272 | 13.33° C | 43% | 1014.5 hPa | 0 mm | - | 512 W/m² | - |
| 1778077969 | 13.33° C | 43% | 1014.1 hPa | 0 mm | - | 508 W/m² | - |
| 1778071913 | 8.33° C | 67% | 1013.9 hPa | 0 mm | - | 253 W/m² | - |
| 1778069492 | 6.67° C | 72% | 1013.5 hPa | 0 mm | - | 145 W/m² | - |
| 1778069190 | 6.11° C | 74% | 1013.5 hPa | 0 mm | - | 133 W/m² | - |
| 1778068887 | 6.11° C | 75% | 1013.7 hPa | 0 mm | - | 123 W/m² | - |
| 1778066165 | 2.78° C | 84% | 1012.3 hPa | 0 mm | - | 25 W/m² | - |
| 1778064953 | 2.22° C | 84% | 1012.3 hPa | 0 mm | - | 13 W/m² | - |
| 1778063138 | 2.22° C | 82% | 1012.4 hPa | 0 mm | - | 1 W/m² | - |
| 1778062835 | 2.22° C | 82% | 1012.2 hPa | 0 mm | - | 1 W/m² | - |
| 1778061927 | 2.22° C | 83% | 1012.3 hPa | 0 mm | - | 0 W/m² | - |
* Rain latest hour (hover to see other rain measurements)
** Current wind speed in m/s (hover to see current wind gust speed)